地図

経路データ

SID SEASON NUMBER BASIN SUBBASIN NAME ISO_TIME NATURE LAT LON WMO_WIND WMO_PRES WMO_AGENCY TRACK_TYPE DIST2LAND LANDFALL IFLAG USA_AGENCY USA_ATCF_ID USA_LAT USA_LON USA_RECORD USA_STATUS USA_WIND USA_PRES USA_SSHS USA_R34_NE USA_R34_SE USA_R34_SW USA_R34_NW USA_R50_NE USA_R50_SE USA_R50_SW USA_R50_NW USA_R64_NE USA_R64_SE USA_R64_SW USA_R64_NW USA_POCI USA_ROCI USA_RMW USA_EYE TOKYO_LAT TOKYO_LON TOKYO_GRADE TOKYO_WIND TOKYO_PRES TOKYO_R50_DIR TOKYO_R50_LONG TOKYO_R50_SHORT TOKYO_R30_DIR TOKYO_R30_LONG TOKYO_R30_SHORT TOKYO_LAND CMA_LAT CMA_LON CMA_CAT CMA_WIND CMA_PRES HKO_LAT HKO_LON HKO_CAT HKO_WIND HKO_PRES NEWDELHI_LAT NEWDELHI_LON NEWDELHI_GRADE NEWDELHI_WIND NEWDELHI_PRES NEWDELHI_CI NEWDELHI_DP NEWDELHI_POCI REUNION_LAT REUNION_LON REUNION_TYPE REUNION_WIND REUNION_PRES REUNION_TNUM REUNION_CI REUNION_RMW REUNION_R34_NE REUNION_R34_SE REUNION_R34_SW REUNION_R34_NW REUNION_R50_NE REUNION_R50_SE REUNION_R50_SW REUNION_R50_NW REUNION_R64_NE REUNION_R64_SE REUNION_R64_SW REUNION_R64_NW BOM_LAT BOM_LON BOM_TYPE BOM_WIND BOM_PRES BOM_TNUM BOM_CI BOM_RMW BOM_R34_NE BOM_R34_SE BOM_R34_SW BOM_R34_NW BOM_R50_NE BOM_R50_SE BOM_R50_SW BOM_R50_NW BOM_R64_NE BOM_R64_SE BOM_R64_SW BOM_R64_NW BOM_ROCI BOM_POCI BOM_EYE BOM_POS_METHOD BOM_PRES_METHOD NADI_LAT NADI_LON NADI_CAT NADI_WIND NADI_PRES WELLINGTON_LAT WELLINGTON_LON WELLINGTON_WIND WELLINGTON_PRES DS824_LAT DS824_LON DS824_STAGE DS824_WIND DS824_PRES TD9636_LAT TD9636_LON TD9636_STAGE TD9636_WIND TD9636_PRES TD9635_LAT TD9635_LON TD9635_WIND TD9635_PRES TD9635_ROCI NEUMANN_LAT NEUMANN_LON NEUMANN_CLASS NEUMANN_WIND NEUMANN_PRES MLC_LAT MLC_LON MLC_CLASS MLC_WIND MLC_PRES USA_GUST BOM_GUST BOM_GUST_PER REUNION_GUST REUNION_GUST_PER USA_SEAHGT USA_SEARAD_NE USA_SEARAD_SE USA_SEARAD_SW USA_SEARAD_NW STORM_SPEED STORM_DIR
1950012S14150 1950 2 SP EA NOT_NAMED 1950-01-11 23:00:00 NR -14.1000 150.000 main 381 381 __________O___ -1 -14.1000 150.000 7 10 274
1950012S14150 1950 2 SP EA NOT_NAMED 1950-01-12 00:00:00 TS -14.0887 149.826 main 383 375 O________OP___ jtwc_sh SH041950 -14.1000 149.800 -1 -14.1000 149.800 TC -14.0775 149.852 7 9 280
1950012S14150 1950 2 SP EA NOT_NAMED 1950-01-12 03:00:00 TS -13.9939 149.367 main 379 377 P________PP___ SH041950 -13.9802 149.337 -1 -13.9802 149.337 TC -14.0121 149.406 7 9 281
1950012S14150 1950 2 SP EA NOT_NAMED 1950-01-12 06:00:00 TS -13.9222 148.923 main 385 366 O________OP___ jtwc_sh SH041950 -13.9000 148.900 -1 -13.9000 148.900 TC -13.9554 148.957 7 8 277
1950012S14150 1950 2 SP EA NOT_NAMED 1950-01-12 09:00:00 TS -13.8948 148.502 main 366 335 P________PP___ SH041950 -13.8849 148.500 -1 -13.8849 148.500 TC -13.9147 148.505 7 8 272
1950012S14150 1950 2 SP EA NOT_NAMED 1950-01-12 11:00:00 TS -13.8965 148.224 main 335 325 P________PO___ SH041950 -13.8947 148.236 -1 -13.8947 148.236 TC -13.9000 148.200 7 8 269
1950012S14150 1950 2 SP EA NOT_NAMED 1950-01-12 12:00:00 TS -13.8990 148.082 main 325 286 O________OP___ jtwc_sh SH041950 -13.9000 148.100 -1 -13.9000 148.100 TC -13.8971 148.047 7 9 270
1950012S14150 1950 2 SP EA NOT_NAMED 1950-01-12 15:00:00 TS -13.8965 147.625 main 276 238 P________PP___ SH041950 -13.8925 147.642 -1 -13.8925 147.642 TC -13.9043 147.591 7 9 269
1950012S14150 1950 2 SP EA NOT_NAMED 1950-01-12 18:00:00 TS -13.9102 147.189 main 238 203 O________OP___ jtwc_sh SH041950 -13.9000 147.200 -1 -13.9000 147.200 TC -13.9307 147.166 7 8 266
1950012S14150 1950 2 SP EA NOT_NAMED 1950-01-12 21:00:00 TS -13.9516 146.803 main 196 179 P________PP___ SH041950 -13.9425 146.805 -1 -13.9425 146.805 TC -13.9699 146.799 7 7 262
1950012S14150 1950 2 SP EA NOT_NAMED 1950-01-12 23:00:00 TS -13.9881 146.616 1002 bom main 179 179 P_____O__PO___ SH041950 -13.9807 146.589 -1 -14.0000 146.900 1002 -13.9807 146.589 TC -14.0000 146.600 7 4 257
1950012S14150 1950 2 SP EA NOT_NAMED 1950-01-13 00:00:00 TS -14.0024 146.580 main 179 170 O_____P__OP___ jtwc_sh SH041950 -14.0000 146.500 -1 -13.9941 146.862 -14.0000 146.500 TC -14.0119 146.519 7 3 255
1950012S14150 1950 2 SP EA NOT_NAMED 1950-01-13 03:00:00 TS -14.0329 146.444 main 163 155 P_____P__PP___ SH041950 -14.0499 146.305 -1 -13.9787 146.749 -14.0499 146.305 TC -14.0529 146.336 7 2 255
1950012S14150 1950 2 SP EA NOT_NAMED 1950-01-13 06:00:00 TS -14.0603 146.361 main 155 147 O_____P__OP___ jtwc_sh SH041950 -14.1000 146.200 -1 -13.9718 146.632 -14.1000 146.200 TC -14.1017 146.220 7 2 249
1950012S14150 1950 2 SP EA NOT_NAMED 1950-01-13 09:00:00 TS -14.0925 146.283 main 147 139 P_____P__PP___ SH041950 -14.1425 146.142 -1 -13.9797 146.510 -14.1425 146.142 TC -14.1582 146.143 7 2 245
1950012S14150 1950 2 SP EA NOT_NAMED 1950-01-13 11:00:00 TS -14.1229 146.228 main 139 139 P_____P__PO___ SH041950 -14.1776 146.117 -1 -13.9964 146.425 -14.1776 146.117 TC -14.2000 146.100 7 2 242
1950012S14150 1950 2 SP EA NOT_NAMED 1950-01-13 12:00:00 TS -14.1412 146.195 main 139 124 O_____P__OP___ jtwc_sh SH041950 -14.2000 146.100 -1 -14.0088 146.380 -14.2000 146.100 TC -14.2192 146.067 7 3 237
1950012S14150 1950 2 SP EA NOT_NAMED 1950-01-13 15:00:00 TS -14.2169 146.080 main 124 108 P_____P__PP___ SH041950 -14.3000 146.000 -1 -14.0655 146.241 -14.3000 146.000 TC -14.2812 145.979 7 3 233
1950012S14150 1950 2 SP EA NOT_NAMED 1950-01-13 18:00:00 TS -14.3066 145.964 main 108 93 O_____P__OP___ jtwc_sh SH041950 -14.4000 145.900 -1 -14.1562 146.088 -14.4000 145.900 TC -14.3524 145.904 7 3 230
1950012S14150 1950 2 SP EA NOT_NAMED 1950-01-13 21:00:00 TS -14.3903 145.862 main 93 77 P_____P__PP___ SH041950 -14.4425 145.842 -1 -14.2872 145.921 -14.4425 145.842 TC -14.4359 145.839 7 3 227
1950012S14150 1950 2 SP EA NOT_NAMED 1950-01-13 23:00:00 TS -14.4585 145.797 997 bom main 77 77 P_____O__PO___ SH041950 -14.4745 145.814 -1 -14.4000 145.800 997 -14.4745 145.814 TC -14.5000 145.800 7 3 222
1950012S14150 1950 2 SP EA NOT_NAMED 1950-01-14 00:00:00 TS -14.5001 145.763 main 77 54 O_____P__OP___ jtwc_sh SH041950 -14.5000 145.800 -1 -14.4645 145.737 996 -14.5000 145.800 TC -14.5362 145.779 7 4 213
1950012S14150 1950 2 SP EA NOT_NAMED 1950-01-14 03:00:00 TS -14.6629 145.661 main 54 39 P_____P__PP___ SH041950 -14.6425 145.750 -1 -14.6795 145.550 995 -14.6425 145.750 TC -14.6563 145.720 7 4 208
1950012S14150 1950 2 SP EA NOT_NAMED 1950-01-14 06:00:00 TS -14.8373 145.574 994 bom main 39 21 O_____O__OP___ jtwc_sh SH041950 -14.8000 145.700 -1 -14.9000 145.400 994 4 -14.8000 145.700 TC -14.7864 145.669 7 3 206
1950012S14150 1950 2 SP EA NOT_NAMED 1950-01-14 09:00:00 TS -14.9719 145.505 main 21 21 P_____P__PP___ SH041950 -14.9075 145.650 -1 -15.0636 145.294 -14.9075 145.650 TC -14.9171 145.625 7 3 204
1950012S14150 1950 2 SP EA NOT_NAMED 1950-01-14 11:00:00 TS -15.0517 145.472 main 24 24 P_____P__PO___ SH041950 -14.9693 145.617 -1 -15.1583 145.253 -14.9693 145.617 TC -15.0000 145.600 7 2 196
1950012S14150 1950 2 SP EA NOT_NAMED 1950-01-14 12:00:00 TS -15.0858 145.456 main 24 11 O_____P__OP___ jtwc_sh SH041950 -15.0000 145.600 -1 -15.2033 145.243 -15.0000 145.600 TC -15.0170 145.572 7 2 201
1950012S14150 1950 2 SP EA NOT_NAMED 1950-01-14 15:00:00 TS -15.1853 145.421 main 11 0 P_____P__PP___ SH041950 -15.0925 145.543 -1 -15.3369 145.251 -15.0925 145.543 TC -15.0542 145.489 7 2 190
1950012S14150 1950 2 SP EA NOT_NAMED 1950-01-14 18:00:00 TS -15.2995 145.423 main 0 0 O_____P__OP___ jtwc_sh SH041950 -15.2000 145.500 -1 -15.4825 145.324 -15.2000 145.500 TC -15.1123 145.433 7 3 171
1950012S14150 1950 2 SP EA NOT_NAMED 1950-01-14 21:00:00 TS -15.4327 145.462 main 15 15 P_____P__PP___ SH041950 -15.2900 145.455 -1 -15.6578 145.465 -15.2900 145.455 TC -15.2444 145.441 7 3 158
1950012S14150 1950 2 SP EA NOT_NAMED 1950-01-14 23:00:00 TS -15.5673 145.532 996 bom main 21 21 P_____O__PO___ SH041950 -15.4074 145.469 -1 -15.8000 145.600 996 -15.4074 145.469 TC -15.4000 145.500 7 5 152
1950012S14150 1950 2 SP EA NOT_NAMED 1950-01-15 00:00:00 TS -15.6623 145.584 main 30 24 O_____P__OP___ jtwc_sh SH041950 -15.5000 145.500 -1 -15.8888 145.677 -15.5000 145.500 TC -15.5228 145.545 7 8 151
1950012S14150 1950 2 SP EA NOT_NAMED 1950-01-15 03:00:00 TS -16.0471 145.811 main 33 32 P_____P__PP___ SH041950 -15.9474 145.683 -1 -16.1873 145.967 -15.9474 145.683 TC -15.9834 145.748 7 10 148
1950012S14150 1950 2 SP EA NOT_NAMED 1950-01-15 06:00:00 TS -16.5080 146.137 main 54 54 O_____P__OP___ jtwc_sh SH041950 -16.5000 146.000 -1 -16.5280 146.332 -16.5000 146.000 TC -16.5242 146.042 7 12 143
1950012S14150 1950 2 SP EA NOT_NAMED 1950-01-15 09:00:00 TS -16.9760 146.541 main 61 61 P_____P__PP___ SH041950 -17.0300 146.412 -1 -16.9035 146.758 -17.0300 146.412 TC -17.0701 146.414 7 12 139
1950012S14150 1950 2 SP EA NOT_NAMED 1950-01-15 11:00:00 TS -17.2773 146.846 main 75 75 P_____P__PO___ SH041950 -17.3562 146.734 -1 -17.1695 147.069 -17.3562 146.734 TC -17.4000 146.700 7 12 135
1950012S14150 1950 2 SP EA NOT_NAMED 1950-01-15 12:00:00 TS -17.4134 147.004 main 95 95 O_____P__OP___ jtwc_sh SH041950 -17.5000 146.900 -1 -17.3064 147.230 -17.5000 146.900 TC -17.5220 146.845 7 12 129
1950012S14150 1950 2 SP EA NOT_NAMED 1950-01-15 15:00:00 TS -17.7776 147.492 main 148 148 P_____P__PP___ SH041950 -17.8299 147.385 -1 -17.7292 147.732 -17.8299 147.385 TC -17.8418 147.330 7 12 126
1950012S14150 1950 2 SP EA NOT_NAMED 1950-01-15 18:00:00 TS -18.1163 148.010 main 158 149 O_____P__OP___ jtwc_sh SH041950 -18.1000 147.900 -1 -18.1647 148.249 -18.1000 147.900 TC -18.1214 147.867 7 12 124
1950012S14150 1950 2 SP EA NOT_NAMED 1950-01-15 21:00:00 TS -18.4596 148.545 main 153 153 P_____P__PP___ SH041950 -18.3850 148.450 -1 -18.6060 148.765 -18.3850 148.450 TC -18.3982 148.427 7 12 124
1950012S14150 1950 2 SP EA NOT_NAMED 1950-01-15 23:00:00 TS -18.6892 148.900 997 bom main 158 152 P_____O__PO___ SH041950 -18.5886 148.820 -1 -18.9000 149.100 997 -18.5886 148.820 TC -18.6000 148.800 7 12 125
1950012S14150 1950 2 SP EA NOT_NAMED 1950-01-16 00:00:00 TS -18.8029 149.069 main 158 143 O_____P__OP___ jtwc_sh SH041950 -18.7000 149.000 -1 -19.0462 149.264 -18.7000 149.000 TC -18.7162 148.980 7 12 128
1950012S14150 1950 2 SP EA NOT_NAMED 1950-01-16 03:00:00 TS -19.1841 149.565 main 148 139 P_____P__PP___ SH041950 -19.0847 149.500 -1 -19.4816 149.737 -19.0847 149.500 TC -19.0853 149.522 7 12 130
1950012S14150 1950 2 SP EA NOT_NAMED 1950-01-16 06:00:00 TS -19.5988 150.062 main 156 151 O_____P__OP___ jtwc_sh SH041950 -19.5000 150.000 -1 -19.9125 150.189 -19.5000 150.000 TC -19.4829 150.057 7 13 131
1950012S14150 1950 2 SP EA NOT_NAMED 1950-01-16 09:00:00 TS -20.0038 150.578 main 185 185 P_____P__PP___ SH041950 -19.8850 150.558 -1 -20.3396 150.621 -19.8850 150.558 TC -19.9057 150.573 7 13 131
1950012S14150 1950 2 SP EA NOT_NAMED 1950-01-16 11:00:00 TS -20.2833 150.913 main 198 198 P_____P__PO___ SH041950 -20.1553 150.926 -1 -20.6226 150.901 -20.1553 150.926 TC -20.2000 150.900 7 13 134
1950012S14150 1950 2 SP EA NOT_NAMED 1950-01-16 12:00:00 TS -20.4469 151.070 main 212 186 O_____P__OP___ jtwc_sh SH041950 -20.3000 151.100 -1 -20.7636 151.039 -20.3000 151.100 TC -20.3506 151.057 7 13 139
1950012S14150 1950 2 SP EA NOT_NAMED 1950-01-16 15:00:00 TS -20.9263 151.507 main 186 166 P_____P__PP___ SH041950 -20.7801 151.572 -1 -21.1851 151.445 -20.7801 151.572 TC -20.8138 151.505 7 12 141
1950012S14150 1950 2 SP EA NOT_NAMED 1950-01-16 18:00:00 TS -21.4106 151.914 main 166 159 O_____P__OP___ jtwc_sh SH041950 -21.3000 152.000 -1 -21.6045 151.843 -21.3000 152.000 TC -21.2904 151.926 7 12 143
1950012S14150 1950 2 SP EA NOT_NAMED 1950-01-16 21:00:00 NR -21.8987 152.285 main 168 164 ______P___P___ SH041950 -1 -22.0222 152.238 TC -21.7751 152.333 7 12 143
1950012S14150 1950 2 SP EA NOT_NAMED 1950-01-16 23:00:00 NR -22.2000 152.550 998 bom main 188 ______O___O___ SH041950 -1 -22.3000 152.500 998 TC -22.1000 152.600 7 12 141

デジタル台風データ・検索

IBTrACS Databaseについて

本データベースは、米国NOAAが公開する1842年以降の世界の熱帯低気圧のベストトラックデータアーカイブInternational Best Track Archive for Climate Stewardship (IBTrACS)を、ウェブで閲覧しやすい形式に変換したものです。

最終更新日:2021-12-01